»·PEaware :: N74201 L52-L88

N74201 :: L52-L88

FLIGHT INFORMATION

Flight Status: Arrived
Operator: Privately registered:
United States
More flights under this callsign
Pilot: Jeff W. (31011)
Aircraft: CESSNA 172 SKYHAWK
(C172)
More flights by this aircraft type
Origin: L52 Oceano Co
United States
Destination: L88 New Cuyama
United States
More flights between these airports :: More routes between these airports
Route:
File this flight plan on PilotEdge
Remarks: cat-01
Altitude:
(Current/Filed)
5,500ft
Speed:
(Current/Filed)
114kts
Departed: 02-Jan-21 02:02 PM
Arrived: 02-Jan-21 02:34 PM
Distance/Time
Traveled:
47nm/0:32
Distance/Time
To Go:
Arrived

Flight Plot

Page will automatically refresh every two minutes.


Map Options




Map Legend


Flown Route
Filed Route
Departure Airport
Arrival Airport
Navaid (VOR, NDB)
Fix

Horizontal Profiles

Position Reports

Time Latitude Longitude Heading Altitude Ground
Speed
02-Jan-21 13:47 34.431445 -119.832847 357 13ft 0kts
02-Jan-21 13:49 35.103497 -120.624069 35 17ft 0kts
02-Jan-21 13:50 35.103497 -120.624069 35 17ft 0kts
02-Jan-21 13:51 35.103497 -120.624069 35 17ft 0kts
02-Jan-21 13:52 35.103497 -120.624069 35 17ft 0kts
02-Jan-21 13:53 35.103497 -120.624069 35 17ft 0kts
02-Jan-21 13:54 35.103527 -120.624051 20 17ft 0kts
02-Jan-21 13:54 35.103696 -120.624245 233 17ft 0kts
02-Jan-21 13:56 35.102314 -120.622497 144 17ft 11kts
02-Jan-21 13:57 35.101427 -120.623101 309 17ft 8kts
02-Jan-21 13:57 35.100339 -120.621211 126 17ft 25kts
02-Jan-21 13:58 35.099359 -120.619383 63 17ft 0kts
02-Jan-21 13:59 35.099359 -120.619383 63 17ft 0kts
02-Jan-21 14:01 35.099359 -120.619383 63 17ft 0kts
02-Jan-21 14:01 35.101489 -120.622298 305 17ft 65kts
02-Jan-21 14:02 35.114802 -120.645883 326 384ft 87kts
02-Jan-21 14:03 35.129403 -120.626431 58 894ft 84kts
02-Jan-21 14:04 35.141598 -120.601924 58 1390ft 84kts
02-Jan-21 14:05 35.143041 -120.574588 104 1890ft 82kts
02-Jan-21 14:06 35.137276 -120.547768 104 2383ft 81kts
02-Jan-21 14:07 35.131574 -120.521277 104 2874ft 79kts
02-Jan-21 14:08 35.125916 -120.494996 104 3322ft 81kts
02-Jan-21 14:09 35.119210 -120.463844 104 3519ft 113kts
02-Jan-21 14:10 35.111009 -120.425752 104 3647ft 108kts
02-Jan-21 14:11 35.103969 -120.393057 104 4243ft 94kts
02-Jan-21 14:12 35.098794 -120.362673 95 4874ft 88kts
02-Jan-21 14:13 35.096672 -120.331520 94 5259ft 105kts
02-Jan-21 14:14 35.094078 -120.293189 94 5233ft 116kts
02-Jan-21 14:15 35.091414 -120.253843 94 5232ft 116kts
02-Jan-21 14:16 35.091066 -120.214744 70 5237ft 115kts
02-Jan-21 14:17 35.098537 -120.176748 90 5231ft 116kts
02-Jan-21 14:18 35.086237 -120.140100 113 5204ft 117kts
02-Jan-21 14:19 35.073162 -120.103803 113 5204ft 116kts
02-Jan-21 14:20 35.060107 -120.067567 113 5204ft 116kts
02-Jan-21 14:21 35.046385 -120.031886 118 5204ft 116kts
02-Jan-21 14:22 35.027246 -119.989296 118 5204ft 116kts
02-Jan-21 14:23 35.012103 -119.955610 118 5174ft 119kts
02-Jan-21 14:24 34.995647 -119.919009 118 4928ft 123kts
02-Jan-21 14:25 34.979810 -119.881948 114 4729ft 123kts
02-Jan-21 14:26 34.965448 -119.843951 114 4530ft 123kts
02-Jan-21 14:27 34.951032 -119.805810 114 4331ft 123kts
02-Jan-21 14:28 34.936523 -119.767432 114 4072ft 126kts
02-Jan-21 14:29 34.921774 -119.728425 114 3774ft 126kts
02-Jan-21 14:30 34.921383 -119.687335 110 3491ft 118kts
02-Jan-21 14:31 34.915470 -119.651585 34 2999ft 106kts
02-Jan-21 14:32 34.929590 -119.665586 278 2718ft 74kts
02-Jan-21 14:33 34.936428 -119.685708 294 2206ft 39kts
02-Jan-21 14:34 34.939643 -119.693627 347 2206ft 3kts
02-Jan-21 14:35 34.939808 -119.693607 18 2206ft 0kts
02-Jan-21 14:36 34.939808 -119.693607 18 2206ft 0kts
02-Jan-21 14:37 34.939808 -119.693607 18 2206ft 0kts
02-Jan-21 14:38 34.939808 -119.693607 18 2206ft 0kts
02-Jan-21 14:39 34.939808 -119.693607 18 2206ft 0kts
02-Jan-21 14:40 34.939808 -119.693607 18 2206ft 0kts
02-Jan-21 14:41 34.939808 -119.693607 18 2206ft 0kts
02-Jan-21 14:42 34.939808 -119.693607 18 2206ft 0kts
02-Jan-21 14:43 34.939808 -119.693607 18 2206ft 0kts
02-Jan-21 14:44 34.939808 -119.693607 18 2206ft 0kts
02-Jan-21 14:45 34.939808 -119.693607 18 2206ft 0kts
02-Jan-21 14:46 34.939808 -119.693607 18 2206ft 0kts
02-Jan-21 14:47 34.939808 -119.693607 18 2206ft 0kts

Navigation Log

Ident Type
Flight plan parsing failed, navigation log unavailable